Time;durP1;ratioP1;P1;durP2;ratioP2;P2;SDS_P1;SDS_P2;PMS_P1;PMS_P2;Temp;Humidity;BMP_temperature;BMP_pressure;BME280_temperature;BME280_humidity;BME280_pressure;Samples;Min_cycle;Max_cycle;Signal;HPM_P1;HPM_P2
2023/09/08 03:00:58;;;;;;;7.30;4.65;;;20.30;87.00;;;;;;5175813;22;20031;-86
2023/09/08 03:03:24;;;;;;;13.45;4.40;;;20.30;87.00;;;;;;5023356;28;20433;-87
2023/09/08 03:05:55;;;;;;;7.65;4.63;;;20.30;87.00;;;;;;5024459;28;20093;-87
2023/09/08 03:08:23;;;;;;;7.75;4.78;;;20.60;87.10;;;;;;5020884;28;20042;-86
2023/09/08 03:10:49;;;;;;;8.45;4.70;;;20.30;86.90;;;;;;5027959;28;20036;-87
2023/09/08 03:13:15;;;;;;;7.78;4.20;;;20.30;86.90;;;;;;5021947;28;20359;-87
2023/09/08 03:15:40;;;;;;;11.18;4.70;;;20.30;86.90;;;;;;5029957;28;20080;-87
2023/09/08 03:18:06;;;;;;;11.77;5.00;;;20.30;86.90;;;;;;5029682;28;20018;-87
2023/09/08 03:20:35;;;;;;;7.63;4.55;;;20.30;86.80;;;;;;5023190;28;20087;-87
2023/09/08 03:23:01;;;;;;;8.15;4.68;;;20.30;86.80;;;;;;5027567;28;20032;-87
2023/09/08 03:25:26;;;;;;;13.68;4.55;;;20.70;87.00;;;;;;5026967;28;20021;-87
2023/09/08 03:27:52;;;;;;;7.68;4.85;;;20.30;86.70;;;;;;5028179;28;20032;-87
2023/09/08 03:30:18;;;;;;;9.00;4.97;;;20.30;86.70;;;;;;5022059;28;20087;-87
2023/09/08 03:32:47;;;;;;;7.75;4.82;;;20.30;86.70;;;;;;5027044;28;20025;-86
2023/09/08 03:35:13;;;;;;;6.45;4.85;;;20.30;86.70;;;;;;5032662;28;20025;-86
2023/09/08 03:37:38;;;;;;;9.68;5.78;;;20.30;86.70;;;;;;5028807;28;20056;-87
2023/09/08 03:40:06;;;;;;;14.35;4.72;;;20.30;86.60;;;;;;5026509;28;20022;-86
2023/09/08 03:42:31;;;;;;;10.70;4.90;;;20.30;86.60;;;;;;5019955;28;20499;-86
2023/09/08 03:44:57;;;;;;;9.50;5.15;;;20.50;86.70;;;;;;5023528;28;20057;-86
2023/09/08 03:47:23;;;;;;;7.90;4.65;;;20.30;86.60;;;;;;5026510;28;20037;-85
2023/09/08 03:49:49;;;;;;;13.10;5.18;;;20.30;86.60;;;;;;5023668;28;20510;-87
2023/09/08 03:52:15;;;;;;;8.93;5.30;;;20.30;86.60;;;;;;5024184;28;20026;-86
2023/09/08 03:54:41;;;;;;;8.98;4.85;;;20.30;86.60;;;;;;5023001;28;20033;-87
2023/09/08 03:57:06;;;;;;;11.93;4.80;;;20.30;86.60;;;;;;5030956;28;20494;-86
2023/09/08 03:59:32;;;;;;;6.40;4.78;;;20.30;86.50;;;;;;5032244;28;20029;-87
2023/09/08 04:01:58;;;;;;;7.95;5.60;;;20.30;86.60;;;;;;5024402;28;20091;-86
2023/09/08 04:04:24;;;;;;;10.32;5.78;;;20.30;86.50;;;;;;5026603;28;20529;-87
2023/09/08 04:06:49;;;;;;;13.95;5.97;;;20.30;86.50;;;;;;5029730;28;20429;-87
2023/09/08 04:09:15;;;;;;;10.48;5.32;;;20.20;86.50;;;;;;5025101;28;20436;-87
2023/09/08 04:11:41;;;;;;;16.60;5.53;;;20.20;86.50;;;;;;5021870;28;20030;-86
2023/09/08 04:14:09;;;;;;;9.32;5.40;;;20.20;86.50;;;;;;5026224;28;20466;-87
2023/09/08 04:16:35;;;;;;;10.65;5.50;;;20.20;86.50;;;;;;5019555;28;20021;-87
2023/09/08 04:19:01;;;;;;;10.60;6.20;;;20.30;86.60;;;;;;5026443;28;20036;-87
2023/09/08 04:21:27;;;;;;;9.35;5.68;;;20.20;86.50;;;;;;5026792;28;20032;-87
2023/09/08 04:23:52;;;;;;;10.15;6.03;;;20.50;86.70;;;;;;5022379;28;20028;-87
2023/09/08 04:26:21;;;;;;;7.22;4.65;;;20.20;86.50;;;;;;5022712;28;20024;-87
2023/09/08 04:28:46;;;;;;;14.20;5.85;;;20.20;86.50;;;;;;5024223;28;20033;-86
2023/09/08 04:31:12;;;;;;;8.40;5.35;;;20.20;86.80;;;;;;5029719;28;20021;-86
2023/09/08 04:33:38;;;;;;;8.38;6.22;;;20.20;86.50;;;;;;5026264;28;20034;-87
2023/09/08 04:36:04;;;;;;;8.65;5.10;;;20.20;87.20;;;;;;5028952;28;20028;-87
2023/09/08 04:38:30;;;;;;;9.55;5.47;;;20.20;86.50;;;;;;5028188;28;20477;-87
2023/09/08 04:40:56;;;;;;;17.17;5.43;;;20.20;87.20;;;;;;5029965;28;20102;-84
2023/09/08 04:43:21;;;;;;;9.07;4.85;;;20.20;86.50;;;;;;5027806;28;20029;-87
2023/09/08 04:45:47;;;;;;;9.70;5.13;;;20.20;86.50;;;;;;5025155;28;20037;-84
2023/09/08 04:48:13;;;;;;;7.22;4.82;;;20.20;86.40;;;;;;5024418;28;20038;-85
2023/09/08 04:50:38;;;;;;;15.02;5.65;;;20.40;84.10;;;;;;5021614;28;20474;-86
2023/09/08 04:53:04;;;;;;;9.63;5.28;;;20.00;83.00;;;;;;5026630;28;20107;-85
2023/09/08 04:55:30;;;;;;;8.38;5.43;;;19.90;82.50;;;;;;5023691;28;20030;-86
2023/09/08 04:57:55;;;;;;;8.88;5.38;;;19.80;82.60;;;;;;5026017;28;20034;-85
2023/09/08 05:00:21;;;;;;;13.05;5.85;;;19.80;83.00;;;;;;5021516;28;20417;-85
2023/09/08 05:02:47;;;;;;;12.20;5.80;;;19.70;83.00;;;;;;5026109;28;20037;-86
2023/09/08 05:05:13;;;;;;;12.63;5.15;;;19.60;83.30;;;;;;5021680;28;20021;-85
2023/09/08 05:07:38;;;;;;;13.70;6.30;;;19.60;83.40;;;;;;5023209;28;20025;-85
2023/09/08 05:10:04;;;;;;;19.38;7.25;;;19.60;83.60;;;;;;5022163;28;20036;-85
2023/09/08 05:12:30;;;;;;;10.25;6.38;;;19.60;84.00;;;;;;5022322;28;20501;-85
2023/09/08 05:15:00;;;;;;;9.90;6.53;;;19.60;84.10;;;;;;5023715;28;20053;-85
2023/09/08 05:17:26;;;;;;;10.23;6.33;;;19.50;84.20;;;;;;5021030;28;20124;-85
2023/09/08 05:19:51;;;;;;;10.15;6.45;;;19.50;84.20;;;;;;5024495;28;20029;-85
2023/09/08 05:22:17;;;;;;;13.00;6.30;;;19.60;84.50;;;;;;5031386;28;20520;-85
2023/09/08 05:24:43;;;;;;;11.27;6.82;;;19.50;84.50;;;;;;5024995;28;20030;-85
2023/09/08 05:27:08;;;;;;;5.95;5.20;;;19.50;84.40;;;;;;5028121;28;20048;-85
2023/09/08 05:29:34;;;;;;;8.50;5.15;;;19.50;84.50;;;;;;5027923;28;20485;-85
2023/09/08 05:31:59;;;;;;;11.52;5.15;;;19.50;84.60;;;;;;5025739;28;20462;-85
2023/09/08 05:34:25;;;;;;;12.18;5.88;;;19.40;84.60;;;;;;5024931;28;20423;-85
2023/09/08 05:36:50;;;;;;;14.52;6.72;;;19.40;84.70;;;;;;5028175;28;20490;-86
2023/09/08 05:39:18;;;;;;;9.75;5.35;;;19.40;84.80;;;;;;5027683;28;20028;-85
2023/09/08 05:41:44;;;;;;;8.18;5.13;;;19.40;84.90;;;;;;5029082;28;20385;-84
2023/09/08 05:44:09;;;;;;;11.00;6.07;;;19.30;85.00;;;;;;5028407;28;20025;-85
2023/09/08 05:46:35;;;;;;;15.88;6.35;;;19.40;85.30;;;;;;5025526;28;20037;-85
2023/09/08 05:49:00;;;;;;;10.98;5.65;;;19.40;85.40;;;;;;5027029;28;20041;-85
2023/09/08 05:51:26;;;;;;;10.23;5.88;;;19.30;85.70;;;;;;5026544;28;20060;-85
2023/09/08 05:53:52;;;;;;;14.30;5.35;;;19.30;86.00;;;;;;5025455;28;20088;-84
2023/09/08 05:56:19;;;;;;;9.18;5.53;;;19.70;86.40;;;;;;5028090;28;20033;-84
2023/09/08 05:58:45;;;;;;;11.80;6.50;;;19.40;86.30;;;;;;5027045;28;20045;-85
2023/09/08 06:01:10;;;;;;;7.80;5.20;;;19.40;86.50;;;;;;5031605;28;20060;-85
2023/09/08 06:03:36;;;;;;;7.95;5.45;;;19.40;86.60;;;;;;5026362;28;20040;-84
2023/09/08 06:06:02;;;;;;;8.43;5.40;;;19.30;86.60;;;;;;5022531;28;20034;-85
2023/09/08 06:08:27;;;;;;;10.90;6.10;;;19.40;86.80;;;;;;5025748;28;20036;-85
2023/09/08 06:10:53;;;;;;;11.70;5.72;;;19.40;86.80;;;;;;5032048;28;20056;-84
2023/09/08 06:13:18;;;;;;;13.48;5.88;;;19.70;87.20;;;;;;5024739;28;20032;-84
2023/09/08 06:15:44;;;;;;;8.80;4.95;;;19.40;87.30;;;;;;5024156;28;20041;-84
2023/09/08 06:18:11;;;;;;;10.10;5.45;;;19.30;87.50;;;;;;5021722;28;20041;-84
2023/09/08 06:20:37;;;;;;;10.52;6.00;;;19.40;87.70;;;;;;5023057;28;20033;-85
2023/09/08 06:23:02;;;;;;;12.40;6.10;;;19.40;87.70;;;;;;5024486;28;20028;-84
2023/09/08 06:25:31;;;;;;;9.27;5.20;;;19.40;87.80;;;;;;5013936;28;20563;-85
2023/09/08 06:27:56;;;;;;;9.90;5.32;;;19.40;87.80;;;;;;5022311;28;20021;-84
2023/09/08 06:30:22;;;;;;;14.45;5.78;;;19.40;88.00;;;;;;5025888;28;20525;-85
2023/09/08 06:32:47;;;;;;;11.95;6.07;;;19.40;88.10;;;;;;5029047;28;20028;-84
2023/09/08 06:35:13;;;;;;;7.57;5.13;;;19.40;88.30;;;;;;5023591;28;20029;-84
2023/09/08 06:37:39;;;;;;;9.85;4.95;;;19.40;88.40;;;;;;5025083;28;20026;-86
2023/09/08 06:40:05;;;;;;;13.32;5.35;;;19.80;88.80;;;;;;5026426;28;20049;-85
2023/09/08 06:42:31;;;;;;;7.85;4.90;;;19.50;88.60;;;;;;5025181;28;20025;-85
2023/09/08 06:44:57;;;;;;;9.25;5.80;;;19.50;88.80;;;;;;5024262;28;20029;-84
2023/09/08 06:47:22;;;;;;;17.08;6.15;;;19.50;88.80;;;;;;5026843;28;20071;-85
2023/09/08 06:49:48;;;;;;;11.65;5.38;;;19.50;88.90;;;;;;5023446;28;20121;-85
2023/09/08 06:52:14;;;;;;;10.75;5.78;;;19.50;88.80;;;;;;5026113;28;20033;-84
2023/09/08 06:54:39;;;;;;;15.27;6.18;;;19.50;88.80;;;;;;5025595;28;20377;-85
2023/09/08 06:57:05;;;;;;;12.00;5.68;;;19.50;88.70;;;;;;5022562;28;20485;-85
2023/09/08 06:59:30;;;;;;;13.05;5.50;;;20.00;90.00;;;;;;5024434;28;20036;-85
2023/09/08 07:01:56;;;;;;;9.23;5.80;;;19.50;88.90;;;;;;5024579;28;20109;-85
2023/09/08 07:04:21;;;;;;;11.43;6.22;;;19.60;89.10;;;;;;5021504;28;20371;-85
2023/09/08 07:06:49;;;;;;;8.82;6.22;;;19.60;89.50;;;;;;5023715;28;20181;-85
2023/09/08 07:09:15;;;;;;;9.13;5.47;;;19.70;89.60;;;;;;5023143;28;20044;-84
2023/09/08 07:11:41;;;;;;;12.20;5.80;;;19.50;89.50;;;;;;5027922;28;20124;-84
2023/09/08 07:14:06;;;;;;;10.95;5.95;;;19.60;89.50;;;;;;5025779;28;20079;-85
2023/09/08 07:16:32;;;;;;;16.40;6.10;;;19.70;89.60;;;;;;5024864;28;20072;-85
2023/09/08 07:18:59;;;;;;;11.48;5.45;;;19.70;89.50;;;;;;5020991;28;20512;-86
2023/09/08 07:21:25;;;;;;;12.98;6.50;;;19.70;89.40;;;;;;5026952;28;20521;-86
2023/09/08 07:23:51;;;;;;;13.63;6.88;;;19.70;89.30;;;;;;5022592;28;20076;-86
2023/09/08 07:26:17;;;;;;;11.43;5.30;;;19.70;89.40;;;;;;5026108;28;20021;-85
2023/09/08 07:28:42;;;;;;;17.83;7.05;;;19.70;89.40;;;;;;5025280;28;20029;-86
2023/09/08 07:31:09;;;;;;;16.83;7.57;;;19.80;89.30;;;;;;5023745;28;20455;-86
2023/09/08 07:33:34;;;;;;;12.55;6.32;;;19.70;90.00;;;;;;5023701;28;20030;-85
2023/09/08 07:36:07;;;;;;;10.00;5.97;;;19.70;90.20;;;;;;5025946;28;20106;-85
2023/09/08 07:38:33;;;;;;;13.20;7.70;;;19.80;89.80;;;;;;5023880;28;20025;-85
2023/09/08 07:41:02;;;;;;;16.25;8.63;;;19.80;90.00;;;;;;5024204;28;20038;-86
2023/09/08 07:43:28;;;;;;;12.77;6.45;;;19.80;89.80;;;;;;5028033;28;20037;-86
2023/09/08 07:45:53;;;;;;;13.77;7.80;;;19.80;89.70;;;;;;5021714;28;20030;-85
2023/09/08 07:48:19;;;;;;;9.85;6.07;;;19.80;89.80;;;;;;5023312;28;20029;-85
2023/09/08 07:50:45;;;;;;;18.13;7.18;;;19.80;89.70;;;;;;5027506;28;20120;-86
2023/09/08 07:53:10;;;;;;;18.17;6.70;;;19.80;89.70;;;;;;5025910;28;20490;-85
2023/09/08 07:55:36;;;;;;;11.93;6.38;;;19.80;89.60;;;;;;5027186;28;20440;-86
2023/09/08 07:58:03;;;;;;;11.88;5.93;;;19.90;90.00;;;;;;5024438;28;20026;-86
2023/09/08 08:00:29;;;;;;;11.15;6.07;;;19.90;90.00;;;;;;5022561;28;20104;-86
2023/09/08 08:02:56;;;;;;;15.38;6.50;;;19.90;90.40;;;;;;5022735;28;20133;-86
2023/09/08 08:05:22;;;;;;;12.32;6.75;;;19.90;90.00;;;;;;5025055;28;20022;-86
2023/09/08 08:07:48;;;;;;;9.65;6.25;;;19.80;90.00;;;;;;5022578;28;20029;-85
2023/09/08 08:10:14;;;;;;;14.13;6.07;;;19.90;90.10;;;;;;5022797;28;20371;-85
2023/09/08 08:12:41;;;;;;;12.18;5.75;;;20.10;90.10;;;;;;5026159;28;20030;-86
2023/09/08 08:15:07;;;;;;;11.90;6.28;;;20.00;90.10;;;;;;5027996;28;20516;-84
2023/09/08 08:17:32;;;;;;;13.15;6.57;;;19.90;90.30;;;;;;5024038;28;20022;-86
2023/09/08 08:19:59;;;;;;;12.27;6.97;;;19.90;90.30;;;;;;5024133;28;20539;-85
2023/09/08 08:22:25;;;;;;;20.25;6.60;;;20.00;90.30;;;;;;5026193;28;20013;-85
2023/09/08 08:24:50;;;;;;;16.10;6.38;;;20.00;90.30;;;;;;5024626;28;20025;-85
2023/09/08 08:27:16;;;;;;;12.23;6.22;;;20.00;90.30;;;;;;5028768;28;20022;-86
2023/09/08 08:29:41;;;;;;;13.45;7.30;;;20.00;90.30;;;;;;5022764;28;20040;-86
2023/09/08 08:32:07;;;;;;;16.00;6.95;;;20.00;90.30;;;;;;5025964;28;20034;-86
2023/09/08 08:34:33;;;;;;;15.43;5.97;;;20.00;90.30;;;;;;5022910;28;20157;-86
2023/09/08 08:36:58;;;;;;;8.32;5.43;;;20.00;90.30;;;;;;5023926;28;20477;-87
2023/09/08 08:39:24;;;;;;;15.88;5.05;;;20.00;90.20;;;;;;5026952;28;20037;-85
2023/09/08 08:41:51;;;;;;;14.00;5.97;;;20.00;90.20;;;;;;5019532;28;20053;-85
2023/09/08 08:44:18;;;;;;;11.55;6.03;;;20.00;90.20;;;;;;5024577;28;20033;-84
2023/09/08 08:46:46;;;;;;;21.42;5.90;;;20.00;90.20;;;;;;5023105;28;20648;-86
2023/09/08 08:49:15;;;;;;;13.10;5.43;;;20.10;90.20;;;;;;5022152;28;20449;-85
2023/09/08 08:51:44;;;;;;;12.10;5.57;;;20.10;90.20;;;;;;5018138;28;20056;-85
2023/09/08 08:54:15;;;;;;;8.17;5.30;;;20.00;90.20;;;;;;5024297;28;20109;-85
2023/09/08 08:56:42;;;;;;;13.95;6.25;;;20.10;90.10;;;;;;5021226;28;20025;-86
2023/09/08 08:59:09;;;;;;;11.93;5.82;;;20.10;90.10;;;;;;5020014;28;20037;-86
2023/09/08 09:01:35;;;;;;;11.90;5.88;;;20.10;90.20;;;;;;5025510;28;20078;-85
2023/09/08 09:04:04;;;;;;;9.95;6.45;;;20.10;90.20;;;;;;5025327;28;20477;-85
2023/09/08 09:06:30;;;;;;;9.38;5.90;;;20.10;90.20;;;;;;5023040;28;20026;-85
2023/09/08 09:08:55;;;;;;;22.55;6.72;;;20.10;90.20;;;;;;5040462;28;20075;-85
2023/09/08 09:11:21;;;;;;;6.22;4.38;;;20.10;90.10;;;;;;5019052;28;20022;-85
2023/09/08 09:13:47;;;;;;;9.30;4.60;;;20.10;90.10;;;;;;5027881;28;20026;-86
2023/09/08 09:16:12;;;;;;;12.15;5.88;;;20.20;90.10;;;;;;5023542;28;20028;-86
2023/09/08 09:19:00;;;;;;;12.40;5.07;;;20.10;89.70;;;;;;5020164;28;20108;-85
2023/09/08 09:21:48;;;;;;;11.15;5.22;;;20.20;90.00;;;;;;5026715;28;20026;-86
2023/09/08 09:24:27;;;;;;;9.60;5.03;;;20.20;90.00;;;;;;5023174;28;20032;-86
2023/09/08 09:26:53;;;;;;;7.53;4.87;;;20.20;89.80;;;;;;5022288;28;20420;-85
2023/09/08 09:29:19;;;;;;;9.98;5.25;;;20.20;89.90;;;;;;5025149;28;20116;-86
2023/09/08 09:32:11;;;;;;;16.65;5.40;;;20.20;90.00;;;;;;5026470;28;20117;-85
2023/09/08 09:34:53;;;;;;;9.63;5.32;;;20.20;90.00;;;;;;5024418;28;20041;-86
2023/09/08 09:37:19;;;;;;;13.60;5.85;;;20.20;90.00;;;;;;5022432;28;20033;-86
2023/09/08 09:39:54;;;;;;;13.38;5.75;;;20.30;89.90;;;;;;5024180;28;20021;-85
2023/09/08 09:42:21;;;;;;;10.15;5.55;;;20.30;89.50;;;;;;5026073;28;20023;-85
2023/09/08 09:44:48;;;;;;;13.40;5.95;;;20.30;89.60;;;;;;5026662;28;20025;-85
2023/09/08 09:47:15;;;;;;;11.25;5.78;;;20.30;89.60;;;;;;5017934;28;20026;-87
2023/09/08 09:49:48;;;;;;;9.95;5.13;;;20.40;90.00;;;;;;5021967;28;20490;-94
2023/09/08 09:52:22;;;;;;;9.93;6.53;;;20.40;89.90;;;;;;5021596;28;20030;-86
2023/09/08 09:54:50;;;;;;;12.27;5.78;;;20.40;89.80;;;;;;5022496;28;20355;-85
2023/09/08 09:57:19;;;;;;;14.93;7.05;;;20.30;89.60;;;;;;5024200;28;20025;-85
2023/09/08 09:59:45;;;;;;;19.65;6.90;;;20.40;89.60;;;;;;5025758;28;20071;-83
2023/09/08 10:02:15;;;;;;;8.77;5.78;;;20.40;90.20;;;;;;5021983;28;20440;-84
2023/09/08 10:04:41;;;;;;;9.07;5.73;;;20.40;90.10;;;;;;5039525;28;20044;-86
2023/09/08 10:07:07;;;;;;;12.10;5.63;;;20.40;90.30;;;;;;5023999;28;20276;-85
2023/09/08 10:09:33;;;;;;;11.43;6.38;;;20.50;90.30;;;;;;5025913;28;20646;-85
2023/09/08 10:12:04;;;;;;;13.25;6.47;;;20.50;90.30;;;;;;5027756;28;20442;-84
2023/09/08 10:14:31;;;;;;;13.18;5.80;;;20.50;90.10;;;;;;5021217;28;20153;-85
2023/09/08 10:16:59;;;;;;;15.52;8.18;;;20.50;90.00;;;;;;5026877;28;20025;-84
2023/09/08 10:19:26;;;;;;;17.75;6.68;;;20.60;90.00;;;;;;5027384;28;20045;-84
2023/09/08 10:21:54;;;;;;;9.85;6.07;;;20.60;90.00;;;;;;5025065;28;20026;-85
2023/09/08 10:24:33;;;;;;;15.77;6.40;;;20.60;90.10;;;;;;5029295;28;20478;-85
2023/09/08 10:27:11;;;;;;;8.32;5.55;;;20.60;90.00;;;;;;5024667;28;20040;-84
2023/09/08 10:29:37;;;;;;;15.80;5.72;;;20.60;90.10;;;;;;5019044;28;20050;-84
2023/09/08 10:32:05;;;;;;;16.48;5.80;;;20.70;90.10;;;;;;5024160;28;20029;-85
2023/09/08 10:34:32;;;;;;;9.80;6.00;;;20.70;90.20;;;;;;5024151;28;20116;-84
2023/09/08 10:36:58;;;;;;;10.70;5.85;;;20.70;90.40;;;;;;5021292;28;20105;-84
2023/09/08 10:39:39;;;;;;;10.02;5.78;;;20.70;90.20;;;;;;5023760;28;20152;-85
2023/09/08 10:42:17;;;;;;;14.85;5.60;;;20.80;90.20;;;;;;5024227;28;20045;-85
2023/09/08 10:45:14;;;;;;;11.85;5.57;;;20.80;90.20;;;;;;5019863;28;20051;-84
2023/09/08 10:48:00;;;;;;;9.15;5.35;;;20.80;90.40;;;;;;5025432;28;20067;-84
2023/09/08 10:50:32;;;;;;;9.90;5.38;;;20.80;90.30;;;;;;5021678;28;20448;-85
2023/09/08 10:53:10;;;;;;;13.02;6.03;;;20.80;90.30;;;;;;5025656;28;20022;-84
2023/09/08 10:55:53;;;;;;;10.70;6.30;;;20.80;90.40;;;;;;5025445;28;20084;-84
2023/09/08 10:58:36;;;;;;;11.75;5.80;;;20.80;90.30;;;;;;5023415;28;20018;-85
2023/09/08 11:01:04;;;;;;;9.63;4.97;;;20.80;90.30;;;;;;5025129;28;20018;-84
2023/09/08 11:03:41;;;;;;;13.85;6.32;;;20.80;90.40;;;;;;5024581;28;20049;-85
2023/09/08 11:06:08;;;;;;;15.15;6.68;;;20.90;90.90;;;;;;5022953;28;20038;-86
2023/09/08 11:08:35;;;;;;;14.45;6.13;;;20.90;90.80;;;;;;5027239;28;20072;-86
2023/09/08 11:11:01;;;;;;;10.38;6.05;;;20.90;90.70;;;;;;5027510;28;20021;-86
2023/09/08 11:13:28;;;;;;;16.33;6.72;;;20.90;90.70;;;;;;5022792;28;20025;-85
2023/09/08 11:15:54;;;;;;;14.00;6.10;;;20.90;91.00;;;;;;5024758;28;20462;-86
2023/09/08 11:18:26;;;;;;;8.43;5.68;;;21.00;91.30;;;;;;5027802;28;20095;-84
2023/09/08 11:20:53;;;;;;;12.25;6.15;;;21.10;91.60;;;;;;5029552;28;20032;-84
2023/09/08 11:23:20;;;;;;;11.43;5.80;;;21.10;91.80;;;;;;5028229;28;20519;-85
2023/09/08 11:25:46;;;;;;;13.48;7.07;;;21.10;92.00;;;;;;5020525;28;20029;-85
2023/09/08 11:28:13;;;;;;;12.00;5.85;;;21.10;91.90;;;;;;5028055;28;20104;-85
2023/09/08 11:30:39;;;;;;;10.23;5.65;;;21.10;91.80;;;;;;5026898;28;20471;-85
2023/09/08 11:33:26;;;;;;;9.60;5.85;;;21.10;91.60;;;;;;5022058;28;20022;-86
2023/09/08 11:35:55;;;;;;;10.43;5.82;;;21.10;91.70;;;;;;5030351;28;20041;-86
2023/09/08 11:38:28;;;;;;;17.67;5.90;;;21.20;91.60;;;;;;5027887;28;20083;-86
2023/09/08 11:40:57;;;;;;;9.57;5.78;;;21.20;91.90;;;;;;5029472;28;20068;-85
2023/09/08 11:43:22;;;;;;;16.63;6.57;;;21.30;91.90;;;;;;5028037;28;20053;-87
2023/09/08 11:45:48;;;;;;;11.60;6.25;;;21.30;91.70;;;;;;5026008;28;20063;-86
2023/09/08 11:48:15;;;;;;;13.32;5.97;;;21.30;91.60;;;;;;5026870;28;20320;-86
2023/09/08 11:50:42;;;;;;;19.25;6.55;;;21.30;91.70;;;;;;5026386;28;20053;-86
2023/09/08 11:53:08;;;;;;;20.23;6.10;;;21.30;91.70;;;;;;5025885;28;20101;-86
2023/09/08 11:55:35;;;;;;;10.48;6.32;;;21.30;91.60;;;;;;5021274;28;20034;-86
2023/09/08 11:58:01;;;;;;;9.85;6.63;;;21.30;91.40;;;;;;5027969;28;20385;-85
2023/09/08 12:00:28;;;;;;;13.05;6.72;;;21.40;91.70;;;;;;5025453;28;20030;-86
2023/09/08 12:02:54;;;;;;;12.85;6.18;;;21.30;91.40;;;;;;5027192;28;20032;-86
2023/09/08 12:05:24;;;;;;;11.27;6.28;;;21.30;91.30;;;;;;5022496;28;20022;-86
2023/09/08 12:07:51;;;;;;;9.00;5.45;;;21.40;91.30;;;;;;5028644;28;20017;-86
2023/09/08 12:10:18;;;;;;;12.45;6.43;;;21.40;91.20;;;;;;5026365;28;20041;-85
2023/09/08 12:12:45;;;;;;;12.13;5.60;;;21.40;91.10;;;;;;5028017;28;20130;-86
2023/09/08 12:15:11;;;;;;;15.20;5.68;;;21.40;91.20;;;;;;5023280;28;20475;-86
2023/09/08 12:17:47;;;;;;;15.13;6.72;;;21.40;91.60;;;;;;5025401;28;20490;-85
2023/09/08 12:20:14;;;;;;;13.35;5.05;;;21.60;91.30;;;;;;5023519;28;20029;-85
2023/09/08 12:22:48;;;;;;;8.32;5.40;;;21.50;91.80;;;;;;5031302;28;20014;-85
2023/09/08 12:25:14;;;;;;;9.60;5.28;;;21.60;92.10;;;;;;5028212;28;20116;-85
2023/09/08 12:27:41;;;;;;;13.73;5.60;;;21.70;92.00;;;;;;5028660;28;20811;-86
2023/09/08 12:30:08;;;;;;;9.75;6.47;;;21.80;92.30;;;;;;5020131;28;20033;-85
2023/09/08 12:32:34;;;;;;;11.85;6.53;;;21.80;92.10;;;;;;5025056;28;20034;-86
2023/09/08 12:35:03;;;;;;;11.90;6.60;;;21.70;91.90;;;;;;5024203;28;20433;-86
2023/09/08 12:37:30;;;;;;;8.07;5.73;;;21.80;92.00;;;;;;5028401;28;20022;-85
2023/09/08 12:39:56;;;;;;;10.20;5.45;;;21.80;92.00;;;;;;5023637;28;20261;-86
2023/09/08 12:42:25;;;;;;;10.73;5.20;;;21.80;91.80;;;;;;5025223;28;20489;-85
2023/09/08 12:44:51;;;;;;;8.02;5.18;;;21.80;91.10;;;;;;5019863;28;20721;-86
2023/09/08 12:47:17;;;;;;;11.07;5.93;;;21.80;91.30;;;;;;5025173;28;20022;-86
2023/09/08 12:49:42;;;;;;;11.82;6.45;;;21.80;91.30;;;;;;5023205;28;20057;-87
2023/09/08 12:52:09;;;;;;;13.90;6.18;;;21.80;91.40;;;;;;5017026;28;20025;-86
2023/09/08 12:54:35;;;;;;;13.07;6.00;;;21.80;91.40;;;;;;5023989;28;20033;-85
2023/09/08 12:57:01;;;;;;;8.45;5.82;;;21.80;91.50;;;;;;5024178;28;20045;-86
2023/09/08 12:59:27;;;;;;;8.50;5.28;;;21.90;91.60;;;;;;5019265;28;20052;-85
2023/09/08 13:01:53;;;;;;;8.70;5.03;;;21.90;91.60;;;;;;5028688;28;20091;-86
2023/09/08 13:04:19;;;;;;;14.00;5.28;;;21.80;91.50;;;;;;5027186;28;20035;-86
2023/09/08 13:06:45;;;;;;;8.05;5.15;;;21.90;91.40;;;;;;5040878;28;20029;-86
2023/09/08 13:09:11;;;;;;;11.63;5.70;;;21.80;91.30;;;;;;5026337;28;20033;-88
2023/09/08 13:11:36;;;;;;;12.02;5.15;;;21.80;91.30;;;;;;5028962;28;20029;-87
2023/09/08 13:14:02;;;;;;;13.55;5.32;;;21.80;91.20;;;;;;5047784;28;20123;-88
2023/09/08 13:16:28;;;;;;;8.50;4.90;;;21.80;91.20;;;;;;5045704;28;20113;-86
2023/09/08 13:18:53;;;;;;;7.90;5.18;;;21.80;91.20;;;;;;5042026;28;20017;-87
2023/09/08 13:21:19;;;;;;;15.57;4.97;;;21.80;91.10;;;;;;5025925;28;20052;-86
2023/09/08 13:23:44;;;;;;;7.85;4.82;;;21.80;91.30;;;;;;5046008;28;20415;-87
2023/09/08 13:26:10;;;;;;;12.10;5.13;;;21.90;91.10;;;;;;5025750;28;20060;-87
2023/09/08 13:28:35;;;;;;;7.28;4.85;;;21.80;91.10;;;;;;5028547;28;20040;-86
2023/09/08 13:31:01;;;;;;;7.85;5.00;;;21.80;91.10;;;;;;5031530;28;20036;-86
2023/09/08 13:33:27;;;;;;;9.65;5.53;;;21.90;91.00;;;;;;5022893;28;20038;-87
2023/09/08 13:35:52;;;;;;;8.23;4.65;;;21.90;91.10;;;;;;5025630;28;20032;-87
2023/09/08 13:38:18;;;;;;;8.88;4.35;;;21.90;90.90;;;;;;5027492;28;20030;-85
2023/09/08 13:40:44;;;;;;;8.35;4.57;;;21.90;90.90;;;;;;5041501;28;20031;-86
2023/09/08 13:43:11;;;;;;;8.90;5.20;;;21.90;91.00;;;;;;5046835;28;20021;-86
2023/09/08 13:45:36;;;;;;;7.40;4.75;;;21.90;90.90;;;;;;5049641;28;20017;-86
2023/09/08 13:48:04;;;;;;;7.22;4.88;;;21.90;91.00;;;;;;5027158;28;20024;-85
2023/09/08 13:50:30;;;;;;;8.52;4.97;;;21.90;91.00;;;;;;5047813;28;20457;-86
2023/09/08 13:52:55;;;;;;;8.43;4.00;;;21.90;91.00;;;;;;5050069;28;20017;-86
2023/09/08 13:55:23;;;;;;;7.43;4.65;;;21.90;91.00;;;;;;5042544;28;20022;-87
2023/09/08 13:57:49;;;;;;;14.93;5.10;;;21.90;90.90;;;;;;5032240;28;20503;-87
2023/09/08 14:00:16;;;;;;;7.78;4.60;;;21.90;90.90;;;;;;5028383;28;20036;-87
2023/09/08 14:02:41;;;;;;;7.53;3.90;;;21.90;90.90;;;;;;5044805;28;20414;-87
2023/09/08 14:05:07;;;;;;;5.47;4.00;;;21.90;90.90;;;;;;5047310;28;20036;-86
2023/09/08 14:07:33;;;;;;;7.72;4.90;;;21.90;90.90;;;;;;5048213;28;20716;-86
2023/09/08 14:09:58;;;;;;;9.80;5.00;;;21.90;90.80;;;;;;5033962;28;20080;-86
2023/09/08 14:12:24;;;;;;;12.02;5.05;;;21.90;90.80;;;;;;5050646;28;20481;-86
2023/09/08 14:14:50;;;;;;;9.57;4.43;;;21.90;90.70;;;;;;5047760;28;20709;-86
2023/09/08 14:17:15;;;;;;;7.10;4.43;;;21.90;90.70;;;;;;5043773;28;20101;-86
2023/09/08 14:19:41;;;;;;;9.38;5.10;;;21.90;90.60;;;;;;5051199;28;20468;-86
2023/09/08 14:22:06;;;;;;;8.43;4.43;;;21.90;90.70;;;;;;5046617;28;20062;-87
2023/09/08 14:24:32;;;;;;;8.00;5.07;;;21.90;90.70;;;;;;5044693;28;20109;-86
2023/09/08 14:26:58;;;;;;;11.32;4.85;;;21.90;90.60;;;;;;5051298;28;20036;-86
2023/09/08 14:29:23;;;;;;;13.80;4.35;;;21.90;90.60;;;;;;5032674;28;20370;-87
2023/09/08 14:31:49;;;;;;;6.50;4.38;;;21.80;90.50;;;;;;5043052;28;20040;-86
2023/09/08 14:34:15;;;;;;;11.43;4.82;;;21.90;90.50;;;;;;5049138;28;20052;-86
2023/09/08 14:36:40;;;;;;;12.32;4.63;;;21.80;90.60;;;;;;5032413;28;20099;-86
2023/09/08 14:39:06;;;;;;;6.07;4.68;;;21.80;90.70;;;;;;5044982;28;20019;-86
2023/09/08 14:41:32;;;;;;;6.97;4.75;;;21.90;90.70;;;;;;5032868;28;20112;-86
2023/09/08 14:43:57;;;;;;;7.38;4.97;;;21.90;90.70;;;;;;5045756;28;20017;-87
2023/09/08 14:46:23;;;;;;;6.50;4.40;;;21.90;90.70;;;;;;5032688;28;20025;-86
2023/09/08 14:48:49;;;;;;;7.82;4.85;;;21.90;90.70;;;;;;5049475;28;20449;-86
2023/09/08 14:51:14;;;;;;;8.98;4.93;;;21.90;90.90;;;;;;5023401;28;20098;-86
2023/09/08 14:53:40;;;;;;;8.45;4.80;;;21.90;90.80;;;;;;5034363;28;20056;-86
2023/09/08 14:56:05;;;;;;;10.63;4.75;;;21.90;90.90;;;;;;5049686;28;20449;-86
2023/09/08 14:58:33;;;;;;;6.75;4.63;;;21.90;90.80;;;;;;5043097;28;20029;-86
2023/09/08 15:01:08;;;;;;;7.25;4.75;;;21.90;90.70;;;;;;5028366;28;21040;-86
2023/09/08 15:03:34;;;;;;;8.63;4.78;;;21.90;90.70;;;;;;5029349;28;20029;-85
2023/09/08 15:06:00;;;;;;;10.15;4.45;;;21.90;90.70;;;;;;5044376;28;20017;-86
2023/09/08 15:08:26;;;;;;;5.40;4.30;;;21.90;90.60;;;;;;5045997;28;20103;-87
2023/09/08 15:10:52;;;;;;;8.25;4.40;;;21.90;90.60;;;;;;5033121;28;20025;-85
2023/09/08 15:13:17;;;;;;;12.38;4.38;;;21.90;90.50;;;;;;5043222;28;20397;-84
2023/09/08 15:15:43;;;;;;;7.32;4.85;;;21.90;90.40;;;;;;5047417;28;20017;-86
2023/09/08 15:18:08;;;;;;;9.35;4.93;;;21.80;90.40;;;;;;5047683;28;20048;-86
2023/09/08 15:20:34;;;;;;;7.03;4.43;;;21.90;90.40;;;;;;5049748;28;20535;-86
2023/09/08 15:23:00;;;;;;;8.07;4.15;;;21.80;90.30;;;;;;5047406;28;20377;-86
2023/09/08 15:25:25;;;;;;;8.30;4.88;;;21.90;90.70;;;;;;5028241;28;20120;-87
2023/09/08 15:27:52;;;;;;;7.38;4.82;;;21.90;90.20;;;;;;5046400;28;20520;-86
2023/09/08 15:30:18;;;;;;;9.45;5.05;;;21.80;90.20;;;;;;5046287;28;20033;-86
2023/09/08 15:32:45;;;;;;;11.18;4.88;;;21.80;90.20;;;;;;5047246;28;20032;-84
2023/09/08 15:35:10;;;;;;;8.63;4.18;;;21.80;90.20;;;;;;5031730;28;20119;-86
2023/09/08 15:37:36;;;;;;;7.32;4.25;;;21.80;90.20;;;;;;5046104;28;20108;-86
2023/09/08 15:40:03;;;;;;;7.50;5.00;;;21.80;90.20;;;;;;5046821;28;20026;-86